Huvudsida
METAR-TAF:

METAR-TAF

Flygplatser :

Linköping, Sverige

Linköping City Airport

latitud: 58-24N, longitud: 015-41E, höjd: 52 m

Aktuellt väderrapport

Denna rapport gjordes för 27 minuter sedan, klockan 02:50 UTC
Vind 3 kt från ost
Temperatur -1°C
Fuktighet 100%
Tryck 998 hPa
Sikt 10 km eller mer

METAR: ESSL 190250Z AUTO 10003KT 9999 OVC004/// M01/M01 Q0998

Tid: 04:17 (03:17 UTC)

Väderprognos

Denna rapport gjordes för 9 timmar och 36 minuter sedan, klockan 17:41 UTC
Prognos gäller från 18 kl. 18 UTC till 18 kl. 22 UTC
Vind 2 kt varierande vindriktning
Sikt 10 km eller mer
Spridda moln på en höjd av 1500 ft
Brutna moln på en höjd av 5500 ft
Temporärt
från 18 kl. 18 UTC till 18 kl. 22 UTC
Sikt: 0200 m
på en höjd av 200 ft
underkyld dimma

TAF: ESSL 181741Z 1818/1822 VRB02KT 9999 SCT015 BKN055 TEMPO 1818/1822 0200 FZFG VV002

Aktuella väderrapporter och prognoser från 4000 flygplatser (METAR- och TAF-rapporter).

De tillgängliga stationerna syns som gula och röda prickar på kartan.

För musen över prickarna för att se namnen på stationerna.

Klicka sedan för att få väderrapporter och prognoser.

För att ändra kartan: Klicka på de gröna knapparna med ett svart kors på för att zooma in; den gröna knappen med ett streck på för att zooma ut; eller på de gröna pilarna för angränsande kartor.


METAR-TAF: